Terminal Aerodrome Forecast
Issued by NWS

Home | Current Version | Previous Version | Text Only | Print | Product List | Glossary On
Versions: 1 2 3 4 5 6 7 8 9 10 11 12 13 14 15 16 17
417
FTUS45 KABQ 281143
TAFTCC
TAF
KTCC 281143Z 2812/2912 VRB05KT P6SM FEW120
     FM281600 24010KT P6SM BKN110
     FM281800 24013G20KT P6SM BKN100
     FM282100 34019G29KT P6SM VCSH SCT035 BKN060
     FM290100 02018G28KT P6SM -SHRA SCT025 BKN040
     FM290600 03013G23KT P6SM -RA BKN015=

USA.gov is the U.S. government's official web portal to all federal, state and local government web resources and services.